Aviation Digital Data Service (ADDS)

Output produced by METARs form (0746 UTC 18 February 2019)
found at http://www.aviationweather.gov/metar/data/
 
METAR text: RJBT 180700Z 12003KT 070V180 CAVOK 11/M03 Q1023
Conditions at: RJBT (TAJIMA , JP) observed 0700 UTC 18 February 2019
Temperature: 11.0°C (52°F)
Dewpoint: -3.0°C (27°F) [RH = 37%]
Pressure (altimeter): 30.21 inches Hg (1023.0 mb)
Winds: from the ESE (120 degrees) at 3 MPH (3 knots; 1.5 m/s)
Visibility: 6 or more miles (10+ km)
Ceiling: ceiling and visibility are OK
Clouds: unknown
Weather: no significant weather observed at this time

METAR text: RJBT 180600Z VRB03KT 9999 FEW040 SCT/// 10/M04 Q1024
Conditions at: RJBT (TAJIMA , JP) observed 0600 UTC 18 February 2019
Temperature: 10.0°C (50°F)
Dewpoint: -4.0°C (25°F) [RH = 37%]
Pressure (altimeter): 30.24 inches Hg (1024.0 mb)
Winds: variable direction winds at 3 MPH (3 knots; 1.5 m/s)
Visibility: 6 or more miles (10+ km)
Ceiling: at least 12,000 feet AGL
Clouds: few clouds at 4000 feet AGL
Weather: no significant weather observed at this time

METAR text: RJBT 180500Z VRB03KT 9999 FEW040 SCT/// 10/M04 Q1024
Conditions at: RJBT (TAJIMA , JP) observed 0500 UTC 18 February 2019
Temperature: 10.0°C (50°F)
Dewpoint: -4.0°C (25°F) [RH = 37%]
Pressure (altimeter): 30.24 inches Hg (1024.0 mb)
Winds: variable direction winds at 3 MPH (3 knots; 1.5 m/s)
Visibility: 6 or more miles (10+ km)
Ceiling: at least 12,000 feet AGL
Clouds: few clouds at 4000 feet AGL
Weather: no significant weather observed at this time

METAR text: RJBT 180400Z VRB04KT 9999 FEW040 BKN/// 10/M02 Q1024
Conditions at: RJBT (TAJIMA , JP) observed 0400 UTC 18 February 2019
Temperature: 10.0°C (50°F)
Dewpoint: -2.0°C (28°F) [RH = 43%]
Pressure (altimeter): 30.24 inches Hg (1024.0 mb)
Winds: variable direction winds at 5 MPH (4 knots; 2.1 m/s)
Visibility: 6 or more miles (10+ km)
Ceiling: at least 12,000 feet AGL
Clouds: few clouds at 4000 feet AGL
Weather: no significant weather observed at this time

METAR text: RJBT 180300Z VRB02KT 9999 FEW040 BKN/// 08/M03 Q1025
Conditions at: RJBT (TAJIMA , JP) observed 0300 UTC 18 February 2019
Temperature: 8.0°C (46°F)
Dewpoint: -3.0°C (27°F) [RH = 46%]
Pressure (altimeter): 30.27 inches Hg (1025.0 mb)
Winds: variable direction winds at 2 MPH (2 knots; 1.0 m/s)
Visibility: 6 or more miles (10+ km)
Ceiling: at least 12,000 feet AGL
Clouds: few clouds at 4000 feet AGL
Weather: no significant weather observed at this time

METAR text: RJBT 180200Z 21004KT 160V230 9999 FEW035 BKN/// 04/04 Q1026
Conditions at: RJBT (TAJIMA , JP) observed 0200 UTC 18 February 2019
Temperature: 4.0°C (39°F)
Dewpoint: 4.0°C (39°F) [RH = 100%]
Pressure (altimeter): 30.30 inches Hg (1026.0 mb)
Winds: from the SSW (210 degrees) at 5 MPH (4 knots; 2.1 m/s)
Visibility: 6 or more miles (10+ km)
Ceiling: at least 12,000 feet AGL
Clouds: few clouds at 3500 feet AGL
Weather: no significant weather observed at this time

METAR text: RJBT 180100Z VRB02KT 5000 BCFG FEW000 BKN/// 03/03 Q1025
Conditions at: RJBT (TAJIMA , JP) observed 0100 UTC 18 February 2019
Temperature: 3.0°C (37°F)
Dewpoint: 3.0°C (37°F) [RH = 100%]
Pressure (altimeter): 30.27 inches Hg (1025.0 mb)
Winds: variable direction winds at 2 MPH (2 knots; 1.0 m/s)
Visibility: 3 miles ( 5 km)
Ceiling: at least 12,000 feet AGL
Clouds: few clouds at 0 feet AGL
Weather: BCFG  (patches of fog)

METAR text: RJBT 180037Z VRB02KT 3000 BCFG FEW000 SCT003 02/02 Q1026 RMK 1ST000 4ST003 A3030 FG ALL QUAD
Conditions at: RJBT (TAJIMA , JP) observed 0037 UTC 18 February 2019
Temperature: 2.0°C (36°F)
Dewpoint: 2.0°C (36°F) [RH = 100%]
Pressure (altimeter): 30.30 inches Hg (1026.0 mb)
Winds: variable direction winds at 2 MPH (2 knots; 1.0 m/s)
Visibility: 1.86 miles (2.99 km)
Ceiling: at least 12,000 feet AGL
Clouds: few clouds at 0 feet AGL
scattered clouds at 300 feet AGL
Weather: BCFG  (patches of fog)

METAR text: RJBT 180027Z VRB02KT 2000 BCFG FEW000 SCT002 BKN004 01/01 Q1026 RMK 1ST000 3ST002 5ST004 A3030 FG ALL QUAD
Conditions at: RJBT (TAJIMA , JP) observed 0027 UTC 18 February 2019
Temperature: 1.0°C (34°F)
Dewpoint: 1.0°C (34°F) [RH = 100%]
Pressure (altimeter): 30.30 inches Hg (1026.0 mb)
Winds: variable direction winds at 2 MPH (2 knots; 1.0 m/s)
Visibility: 1.24 miles (2.00 km)
Ceiling: 400 feet AGL
Clouds: few clouds at 0 feet AGL
scattered clouds at 200 feet AGL
broken clouds at 400 feet AGL
Weather: BCFG  (patches of fog)

METAR text: RJBT 180022Z 21003KT 130V240 1200 BCFG FEW000 BKN002 01/01 Q1026 RMK 1ST000 5ST002 A3030 FG ALL QUAD
Conditions at: RJBT (TAJIMA , JP) observed 0022 UTC 18 February 2019
Temperature: 1.0°C (34°F)
Dewpoint: 1.0°C (34°F) [RH = 100%]
Pressure (altimeter): 30.30 inches Hg (1026.0 mb)
Winds: from the SSW (210 degrees) at 3 MPH (3 knots; 1.5 m/s)
Visibility: 0.75 miles (1.21 km)
Ceiling: 200 feet AGL
Clouds: few clouds at 0 feet AGL
broken clouds at 200 feet AGL
Weather: BCFG  (patches of fog)

METAR text: RJBT 180000Z 20003KT 130V230 0200 FG FEW000 BKN002 00/00 Q1025
Conditions at: RJBT (TAJIMA , JP) observed 0000 UTC 18 February 2019
Temperature: 0.0°C (32°F)
Dewpoint: 0.0°C (32°F) [RH = 100%]
Pressure (altimeter): 30.27 inches Hg (1025.0 mb)
Winds: from the SSW (200 degrees) at 3 MPH (3 knots; 1.5 m/s)
Visibility: 0.12 miles (0.19 km)
Ceiling: 200 feet AGL
Clouds: few clouds at 0 feet AGL
broken clouds at 200 feet AGL
Weather: FG  (fog)

METAR text: RJBT 172330Z 21003KT 170V240 0200 FG FEW000 BKN002 M00/M00 Q1025
Conditions at: RJBT (TAJIMA , JP) observed 2330 UTC 17 February 2019
Temperature: 0.0°C (32°F)
Dewpoint: 0.0°C (32°F) [RH = 100%]
Pressure (altimeter): 30.27 inches Hg (1025.0 mb)
Winds: from the SSW (210 degrees) at 3 MPH (3 knots; 1.5 m/s)
Visibility: 0.12 miles (0.19 km)
Ceiling: 200 feet AGL
Clouds: few clouds at 0 feet AGL
broken clouds at 200 feet AGL
Weather: FG  (fog)

METAR text: RJBT 170900Z VRB02KT 9999 FEW000 SCT030 BKN060 03/03 Q1020
Conditions at: RJBT (TAJIMA , JP) observed 0900 UTC 17 February 2019
Temperature: 3.0°C (37°F)
Dewpoint: 3.0°C (37°F) [RH = 100%]
Pressure (altimeter): 30.12 inches Hg (1020.0 mb)
Winds: variable direction winds at 2 MPH (2 knots; 1.0 m/s)
Visibility: 6 or more miles (10+ km)
Ceiling: 6000 feet AGL
Clouds: few clouds at 0 feet AGL
scattered clouds at 3000 feet AGL
broken clouds at 6000 feet AGL
Weather: no significant weather observed at this time

METAR text: RJBT 170800Z VRB02KT 9999 VCSH FEW020 SCT030 BKN060 04/04 Q1020
Conditions at: RJBT (TAJIMA , JP) observed 0800 UTC 17 February 2019
Temperature: 4.0°C (39°F)
Dewpoint: 4.0°C (39°F) [RH = 100%]
Pressure (altimeter): 30.12 inches Hg (1020.0 mb)
Winds: variable direction winds at 2 MPH (2 knots; 1.0 m/s)
Visibility: 6 or more miles (10+ km)
Ceiling: 6000 feet AGL
Clouds: few clouds at 2000 feet AGL
scattered clouds at 3000 feet AGL
broken clouds at 6000 feet AGL
Weather: VCSH  (showers in vicinity)

METAR text: RJBT 170716Z VRB02KT 9999 VCSH FEW015 SCT030 BKN050 04/04 Q1020 RMK 1CU015 3CU030 6SC050 A3013
Conditions at: RJBT (TAJIMA , JP) observed 0716 UTC 17 February 2019
Temperature: 4.0°C (39°F)
Dewpoint: 4.0°C (39°F) [RH = 100%]
Pressure (altimeter): 30.12 inches Hg (1020.0 mb)
Winds: variable direction winds at 2 MPH (2 knots; 1.0 m/s)
Visibility: 6 or more miles (10+ km)
Ceiling: 5000 feet AGL
Clouds: few clouds at 1500 feet AGL
scattered clouds at 3000 feet AGL
broken clouds at 5000 feet AGL
Weather: VCSH  (showers in vicinity)

METAR text: RJBT 170700Z VRB01KT 9999 -SHRA FEW015 SCT030 BKN040 05/05 Q1020
Conditions at: RJBT (TAJIMA , JP) observed 0700 UTC 17 February 2019
Temperature: 5.0°C (41°F)
Dewpoint: 5.0°C (41°F) [RH = 100%]
Pressure (altimeter): 30.12 inches Hg (1020.0 mb)
Winds: variable direction winds at 1 MPH (1 knots; 0.5 m/s)
Visibility: 6 or more miles (10+ km)
Ceiling: 4000 feet AGL
Clouds: few clouds at 1500 feet AGL
scattered clouds at 3000 feet AGL
broken clouds at 4000 feet AGL
Weather: -SHRA  (light rain showers)

METAR text: RJBT 170600Z VRB01KT 9999 FEW000 SCT020 04/04 Q1019
Conditions at: RJBT (TAJIMA , JP) observed 0600 UTC 17 February 2019
Temperature: 4.0°C (39°F)
Dewpoint: 4.0°C (39°F) [RH = 100%]
Pressure (altimeter): 30.09 inches Hg (1019.0 mb)
Winds: variable direction winds at 1 MPH (1 knots; 0.5 m/s)
Visibility: 6 or more miles (10+ km)
Ceiling: at least 12,000 feet AGL
Clouds: few clouds at 0 feet AGL
scattered clouds at 2000 feet AGL
Weather: no significant weather observed at this time

METAR text: RJBT 170500Z 23003KT 170V280 9999 FEW000 SCT020 03/03 Q1019
Conditions at: RJBT (TAJIMA , JP) observed 0500 UTC 17 February 2019
Temperature: 3.0°C (37°F)
Dewpoint: 3.0°C (37°F) [RH = 100%]
Pressure (altimeter): 30.09 inches Hg (1019.0 mb)
Winds: from the SW (230 degrees) at 3 MPH (3 knots; 1.5 m/s)
Visibility: 6 or more miles (10+ km)
Ceiling: at least 12,000 feet AGL
Clouds: few clouds at 0 feet AGL
scattered clouds at 2000 feet AGL
Weather: no significant weather observed at this time

METAR text: RJBT 170400Z VRB01KT 9999 -SHRA PRFG FEW000 SCT010 BKN020 03/03 Q1019
Conditions at: RJBT (TAJIMA , JP) observed 0400 UTC 17 February 2019
Temperature: 3.0°C (37°F)
Dewpoint: 3.0°C (37°F) [RH = 100%]
Pressure (altimeter): 30.09 inches Hg (1019.0 mb)
Winds: variable direction winds at 1 MPH (1 knots; 0.5 m/s)
Visibility: 6 or more miles (10+ km)
Ceiling: 2000 feet AGL
Clouds: few clouds at 0 feet AGL
scattered clouds at 1000 feet AGL
broken clouds at 2000 feet AGL
Weather: -SHRA PRFG  (light rain showers, partial fog)

METAR text: RJBT 170344Z 03002KT 8000 -SHRA PRFG FEW000 SCT010 BKN020 03/03 Q1020 RMK 1ST000 3CU010 6CU020 A3012 4000SW FG S-SW
Conditions at: RJBT (TAJIMA , JP) observed 0344 UTC 17 February 2019
Temperature: 3.0°C (37°F)
Dewpoint: 3.0°C (37°F) [RH = 100%]
Pressure (altimeter): 30.12 inches Hg (1020.0 mb)
Winds: from the NNE (30 degrees) at 2 MPH (2 knots; 1.0 m/s)
Visibility: 5 miles ( 8 km)
Ceiling: 2000 feet AGL
Clouds: few clouds at 0 feet AGL
scattered clouds at 1000 feet AGL
broken clouds at 2000 feet AGL
Weather: -SHRA PRFG  (light rain showers, partial fog)

METAR text: RJBT 170300Z 02003KT 330V050 3000 -SHRA BCFG FEW000 SCT010 BKN020 03/03 Q1020
Conditions at: RJBT (TAJIMA , JP) observed 0300 UTC 17 February 2019
Temperature: 3.0°C (37°F)
Dewpoint: 3.0°C (37°F) [RH = 100%]
Pressure (altimeter): 30.12 inches Hg (1020.0 mb)
Winds: from the NNE (20 degrees) at 3 MPH (3 knots; 1.5 m/s)
Visibility: 1.86 miles (2.99 km)
Ceiling: 2000 feet AGL
Clouds: few clouds at 0 feet AGL
scattered clouds at 1000 feet AGL
broken clouds at 2000 feet AGL
Weather: -SHRA BCFG  (light rain showers, patches of fog)

METAR text: RJBT 170200Z VRB02KT 1500 -SHRASN BCFG FEW000 SCT010 BKN020 01/01 Q1020
Conditions at: RJBT (TAJIMA , JP) observed 0200 UTC 17 February 2019
Temperature: 1.0°C (34°F)
Dewpoint: 1.0°C (34°F) [RH = 100%]
Pressure (altimeter): 30.12 inches Hg (1020.0 mb)
Winds: variable direction winds at 2 MPH (2 knots; 1.0 m/s)
Visibility: 0.93 miles (1.50 km)
Ceiling: 2000 feet AGL
Clouds: few clouds at 0 feet AGL
scattered clouds at 1000 feet AGL
broken clouds at 2000 feet AGL
Weather: -SHRA -SHSN BCFG  (light rain showers, light snow showers, patches of fog)

METAR text: RJBT 170100Z 00000KT 0800 FG -SHSN FEW000 SCT010 BKN020 01/01 Q1020
Conditions at: RJBT (TAJIMA , JP) observed 0100 UTC 17 February 2019
Temperature: 1.0°C (34°F)
Dewpoint: 1.0°C (34°F) [RH = 100%]
Pressure (altimeter): 30.12 inches Hg (1020.0 mb)
Winds: calm
Visibility: 0.50 miles (0.80 km)
Ceiling: 2000 feet AGL
Clouds: few clouds at 0 feet AGL
scattered clouds at 1000 feet AGL
broken clouds at 2000 feet AGL
Weather: FG -SHSN  (fog, light snow showers)

METAR text: RJBT 170000Z 00000KT 0500 FG -SHSN VV005 00/00 Q1020
Conditions at: RJBT (TAJIMA , JP) observed 0000 UTC 17 February 2019
Temperature: 0.0°C (32°F)
Dewpoint: 0.0°C (32°F) [RH = 100%]
Pressure (altimeter): 30.12 inches Hg (1020.0 mb)
Winds: calm
Visibility: 0.31 miles (0.50 km)
Ceiling: indefinite ceiling with vertical visibility of 500 feet AGL
Clouds: obscured sky
Weather: FG -SHSN  (fog, light snow showers)

METAR text: RJBT 162330Z 00000KT 0300 FG -SHSN VV005 00/00 Q1019
Conditions at: RJBT (TAJIMA , JP) observed 2330 UTC 16 February 2019
Temperature: 0.0°C (32°F)
Dewpoint: 0.0°C (32°F) [RH = 100%]
Pressure (altimeter): 30.09 inches Hg (1019.0 mb)
Winds: calm
Visibility: 0.19 miles (0.31 km)
Ceiling: indefinite ceiling with vertical visibility of 500 feet AGL
Clouds: obscured sky
Weather: FG -SHSN  (fog, light snow showers)